createdAt,value
2022-09-12T00:00:39.400Z,100159.50
2022-09-12T00:03:27.017Z,100170.56
2022-09-12T00:05:55.641Z,100166.16
2022-09-12T00:08:23.186Z,100169.31
2022-09-12T00:10:50.816Z,100172.84
2022-09-12T00:13:18.013Z,100161.56
2022-09-12T00:15:45.616Z,100165.75
2022-09-12T00:18:15.377Z,100165.97
2022-09-12T00:20:44.696Z,100162.63
2022-09-12T00:23:14.647Z,100160.75
2022-09-12T00:25:42.911Z,100174.72
2022-09-12T00:28:14.975Z,100172.22
2022-09-12T00:30:42.959Z,100171.78
2022-09-12T00:33:11.008Z,100176.81
2022-09-12T00:35:42.629Z,100174.09
2022-09-12T00:38:09.933Z,100166.16
2022-09-12T00:40:38.575Z,100173.66
2022-09-12T00:43:07.013Z,100177.44
2022-09-12T00:45:34.320Z,100177.66
2022-09-12T00:48:04.226Z,100182.44
2022-09-12T00:50:33.220Z,100188.50
2022-09-12T00:53:04.581Z,100184.94
2022-09-12T00:55:38.151Z,100181.59
2022-09-12T00:58:13.012Z,100181.22
2022-09-12T01:00:40.328Z,100179.53
2022-09-12T01:03:12.425Z,100185.34
2022-09-12T01:05:50.259Z,100189.34
2022-09-12T01:08:17.815Z,100176.41
2022-09-12T01:10:45.360Z,100191.00
2022-09-12T01:13:14.698Z,100186.00
2022-09-12T01:15:42.226Z,100188.28
2022-09-12T01:18:16.665Z,100189.75
2022-09-12T01:21:13.222Z,100187.22
2022-09-12T01:24:21.423Z,100187.66
2022-09-12T01:27:06.566Z,100190.59
2022-09-12T01:30:12.258Z,100186.19
2022-09-12T01:32:56.281Z,100184.75
2022-09-12T01:35:29.137Z,100179.75
2022-09-12T01:38:08.935Z,100184.13
2022-09-12T01:40:44.194Z,100185.38
2022-09-12T01:43:21.970Z,100191.00
2022-09-12T01:45:58.373Z,100191.41
2022-09-12T01:48:30.996Z,100187.88
2022-09-12T01:51:07.720Z,100173.06
2022-09-12T01:53:40.289Z,100176.19
2022-09-12T01:56:12.905Z,100172.81
2022-09-12T01:58:44.957Z,100174.72
2022-09-12T02:01:17.771Z,100179.72
2022-09-12T02:03:50.335Z,100172.44
2022-09-12T02:06:20.633Z,100177.84
2022-09-12T02:08:52.233Z,100172.22
2022-09-12T02:11:21.654Z,100175.75
2022-09-12T02:13:54.393Z,100180.13
2022-09-12T02:16:26.131Z,100182.41
2022-09-12T02:19:00.365Z,100184.50
2022-09-12T02:21:28.146Z,100181.75
2022-09-12T02:23:59.595Z,100176.34
2022-09-12T02:26:34.323Z,100173.03
2022-09-12T02:29:03.688Z,100176.75
2022-09-12T02:31:38.552Z,100176.16
2022-09-12T02:34:26.914Z,100171.97
2022-09-12T02:37:03.988Z,100178.84
2022-09-12T02:39:31.738Z,100173.06
2022-09-12T02:42:02.019Z,100172.22
2022-09-12T02:44:30.845Z,100170.94
2022-09-12T02:47:05.067Z,100173.66
2022-09-12T02:49:34.088Z,100168.25
2022-09-12T02:52:02.497Z,100167.41
2022-09-12T02:54:31.212Z,100168.25
2022-09-12T02:56:58.457Z,100172.22
2022-09-12T02:59:26.668Z,100171.38
2022-09-12T03:02:07.548Z,100176.38
2022-09-12T03:04:52.664Z,100173.03
2022-09-12T03:07:27.289Z,100174.91
2022-09-12T03:10:02.094Z,100176.81
2022-09-12T03:12:45.899Z,100176.38
2022-09-12T03:15:24.369Z,100178.03
2022-09-12T03:18:03.349Z,100177.81
2022-09-12T03:20:43.245Z,100178.84
2022-09-12T03:23:19.347Z,100181.56
2022-09-12T03:25:52.405Z,100183.00
2022-09-12T03:28:22.136Z,100182.34
2022-09-12T03:30:51.256Z,100189.69
2022-09-12T03:33:20.287Z,100183.44
2022-09-12T03:35:50.171Z,100175.09
2022-09-12T03:38:18.877Z,100183.06
2022-09-12T03:40:46.133Z,100180.75
2022-09-12T03:43:13.525Z,100185.56
2022-09-12T03:45:41.319Z,100185.13
2022-09-12T03:48:08.818Z,100182.84
2022-09-12T03:50:36.355Z,100184.69
2022-09-12T03:53:05.386Z,100176.59
2022-09-12T03:55:32.638Z,100183.25
2022-09-12T03:58:00.223Z,100184.69
2022-09-12T04:00:27.846Z,100181.56
2022-09-12T04:02:55.804Z,100187.84
2022-09-12T04:05:23.633Z,100188.88
2022-09-12T04:07:51.466Z,100190.38
2022-09-12T04:10:20.387Z,100190.78
2022-09-12T04:12:47.706Z,100192.41
2022-09-12T04:15:17.900Z,100198.25
2022-09-12T04:17:45.487Z,100192.22
2022-09-12T04:20:12.777Z,100201.59
2022-09-12T04:22:40.497Z,100198.25
2022-09-12T04:25:08.843Z,100198.47
2022-09-12T04:27:37.529Z,100201.59
2022-09-12T04:30:06.305Z,100203.91
2022-09-12T04:32:33.571Z,100201.59
2022-09-12T04:35:00.898Z,100197.84
2022-09-12T04:37:29.041Z,100199.50
2022-09-12T04:39:56.297Z,100203.72
2022-09-12T04:42:23.702Z,100206.41
2022-09-12T04:44:53.174Z,100198.06
2022-09-12T04:47:20.803Z,100203.28
2022-09-12T04:49:49.255Z,100198.91
2022-09-12T04:52:17.005Z,100205.75
2022-09-12T04:54:44.231Z,100205.13
2022-09-12T04:57:11.524Z,100207.44
2022-09-12T04:59:39.472Z,100207.00
2022-09-12T05:02:10.531Z,100204.50
2022-09-12T05:04:38.013Z,100210.78
2022-09-12T05:07:05.756Z,100208.06
2022-09-12T05:09:33.264Z,100215.13
2022-09-12T05:12:04.103Z,100208.69
2022-09-12T05:14:33.519Z,100207.25
2022-09-12T05:17:01.992Z,100214.34
2022-09-12T05:19:31.304Z,100209.97
2022-09-12T05:21:59.725Z,100214.38
2022-09-12T05:24:27.312Z,100211.84
2022-09-12T05:26:54.953Z,100217.72
2022-09-12T05:29:22.557Z,100221.66
2022-09-12T05:31:49.926Z,100231.50
2022-09-12T05:34:17.241Z,100224.19
2022-09-12T05:36:46.556Z,100232.56
2022-09-12T05:39:13.970Z,100234.84
2022-09-12T05:41:41.424Z,100235.06
2022-09-12T05:44:12.875Z,100242.34
2022-09-12T05:46:42.013Z,100236.56
2022-09-12T05:49:11.865Z,100246.78
2022-09-12T05:51:41.707Z,100237.81
2022-09-12T05:54:12.639Z,100238.03
2022-09-12T05:56:42.414Z,100238.03
2022-09-12T05:59:13.145Z,100244.06
2022-09-12T06:01:41.142Z,100245.31
2022-09-12T06:04:08.560Z,100240.72
2022-09-12T06:06:37.346Z,100253.66
2022-09-12T06:09:06.459Z,100251.38
2022-09-12T06:11:39.786Z,100245.53
2022-09-12T06:14:08.970Z,100244.25
2022-09-12T06:16:37.024Z,100249.06
2022-09-12T06:19:06.252Z,100249.72
2022-09-12T06:21:52.894Z,100250.75
2022-09-12T06:24:22.078Z,100252.44
2022-09-12T06:26:51.601Z,100255.56
2022-09-12T06:29:19.237Z,100255.53
2022-09-12T06:31:46.491Z,100253.47
2022-09-12T06:34:15.904Z,100253.22
2022-09-12T06:36:46.188Z,100249.44
2022-09-12T06:39:15.517Z,100255.50
2022-09-12T06:41:44.480Z,100248.16
2022-09-12T06:44:15.919Z,100254.03
2022-09-12T06:46:44.054Z,100253.16
2022-09-12T06:49:12.256Z,100251.00
2022-09-12T06:51:39.568Z,100252.28
2022-09-12T06:54:07.675Z,100258.34
2022-09-12T06:56:35.056Z,100262.31
2022-09-12T06:59:02.264Z,100255.56
2022-09-12T07:01:32.397Z,100258.69
2022-09-12T07:04:01.083Z,100263.84
2022-09-12T07:06:30.439Z,100270.50
2022-09-12T07:08:58.560Z,100260.50
2022-09-12T07:11:28.556Z,100266.66
2022-09-12T07:13:56.570Z,100261.25
2022-09-12T07:16:24.385Z,100270.09
2022-09-12T07:18:54.790Z,100263.50
2022-09-12T07:21:22.451Z,100263.56
2022-09-12T07:23:50.144Z,100255.72
2022-09-12T07:26:18.183Z,100261.72
2022-09-12T07:28:45.385Z,100270.97
2022-09-12T07:31:16.343Z,100280.53
2022-09-12T07:33:44.823Z,100275.72
2022-09-12T07:36:15.066Z,100280.59
2022-09-12T07:38:43.624Z,100277.91
2022-09-12T07:41:12.175Z,100282.41
2022-09-12T07:43:39.757Z,100288.09
2022-09-12T07:46:07.692Z,100288.91
2022-09-12T07:48:35.556Z,100291.47
2022-09-12T07:51:04.863Z,100287.34
2022-09-12T07:53:35.533Z,100279.69
2022-09-12T07:56:03.934Z,100284.50
2022-09-12T07:58:32.605Z,100285.97
2022-09-12T08:01:04.669Z,100286.44
2022-09-12T08:03:32.022Z,100286.25
2022-09-12T08:06:04.107Z,100287.00
2022-09-12T08:08:33.570Z,100291.47
2022-09-12T08:11:02.752Z,100293.97
2022-09-12T08:13:30.674Z,100284.78
2022-09-12T08:15:59.275Z,100288.66
2022-09-12T08:18:27.028Z,100293.78
2022-09-12T08:20:57.938Z,100289.88
2022-09-12T08:23:25.536Z,100295.50
2022-09-12T08:25:56.159Z,100286.25
2022-09-12T08:28:23.895Z,100299.25
2022-09-12T08:30:51.951Z,100282.91
2022-09-12T08:33:19.394Z,100281.09
2022-09-12T08:35:47.459Z,100284.66
2022-09-12T08:38:14.996Z,100288.09
2022-09-12T08:40:51.474Z,100285.00
2022-09-12T08:43:30.839Z,100288.31
2022-09-12T08:46:06.666Z,100286.44
2022-09-12T08:48:35.645Z,100295.59
2022-09-12T08:51:03.444Z,100289.25
2022-09-12T08:53:34.109Z,100290.50
2022-09-12T08:56:05.155Z,100286.25
2022-09-12T08:58:39.585Z,100289.22
2022-09-12T09:01:12.284Z,100291.97
2022-09-12T09:04:07.463Z,100294.81
2022-09-12T09:06:52.662Z,100298.56
2022-09-12T09:09:31.129Z,100297.59
2022-09-12T09:12:10.061Z,100303.53
2022-09-12T09:14:53.081Z,100294.50
2022-09-12T09:17:26.223Z,100293.75
2022-09-12T09:19:58.654Z,100301.56
2022-09-12T09:22:43.427Z,100299.81
2022-09-12T09:25:18.758Z,100305.38
2022-09-12T09:27:57.508Z,100306.34
2022-09-12T09:30:26.203Z,100305.31
2022-09-12T09:32:57.213Z,100311.06
2022-09-12T09:35:36.779Z,100308.59
2022-09-12T09:38:18.974Z,100305.34
2022-09-12T09:40:58.689Z,100302.06
2022-09-12T09:43:26.893Z,100303.53
2022-09-12T09:45:57.906Z,100300.31
2022-09-12T09:48:28.961Z,100297.22
2022-09-12T09:50:59.171Z,100293.56
2022-09-12T09:53:33.358Z,100292.84
2022-09-12T09:56:05.576Z,100280.31
2022-09-12T09:58:35.401Z,100283.56
2022-09-12T10:01:06.235Z,100285.38
2022-09-12T10:03:37.411Z,100288.56
2022-09-12T10:06:08.489Z,100282.97
2022-09-12T10:08:37.717Z,100278.34
2022-09-12T10:11:08.036Z,100282.41
2022-09-12T10:13:41.295Z,100279.78
2022-09-12T10:16:20.570Z,100273.66
2022-09-12T10:18:49.769Z,100277.22
2022-09-12T10:21:31.583Z,100271.75
2022-09-12T10:24:03.988Z,100272.44
2022-09-12T10:26:36.072Z,100273.97
2022-09-12T10:29:12.000Z,100277.28
2022-09-12T10:31:49.993Z,100273.97
2022-09-12T10:34:25.831Z,100278.00
2022-09-12T10:36:59.359Z,100271.00
2022-09-12T10:39:27.549Z,100271.50
2022-09-12T10:41:54.867Z,100273.75
2022-09-12T10:44:26.016Z,100270.13
2022-09-12T10:46:55.966Z,100273.59
2022-09-12T10:49:26.126Z,100273.53
2022-09-12T10:51:55.078Z,100272.50
2022-09-12T10:54:25.568Z,100270.84
2022-09-12T10:57:04.527Z,100277.09
2022-09-12T10:59:49.334Z,100271.75
2022-09-12T11:02:28.123Z,100270.22
2022-09-12T11:05:05.448Z,100264.94
2022-09-12T11:07:43.315Z,100273.78
2022-09-12T11:10:24.995Z,100272.09
2022-09-12T11:13:04.484Z,100275.09
2022-09-12T11:15:55.983Z,100267.69
2022-09-12T11:18:40.830Z,100265.84
2022-09-12T11:21:18.038Z,100268.75
2022-09-12T11:24:09.171Z,100265.75
2022-09-12T11:27:01.900Z,100265.41
2022-09-12T11:29:46.016Z,100264.53
2022-09-12T11:32:42.132Z,100268.06
2022-09-12T11:35:19.330Z,100261.31
2022-09-12T11:38:12.765Z,100259.31
2022-09-12T11:40:45.584Z,100261.13
2022-09-12T11:43:23.939Z,100249.78
2022-09-12T11:45:52.789Z,100257.75
2022-09-12T11:48:35.675Z,100256.53
2022-09-12T11:51:07.686Z,100256.88
2022-09-12T11:53:40.724Z,100257.19
2022-09-12T11:56:14.514Z,100254.34
2022-09-12T11:58:44.528Z,100256.00
2022-09-12T12:01:17.901Z,100256.06
2022-09-12T12:03:47.554Z,100258.00
2022-09-12T12:06:18.801Z,100257.94
2022-09-12T12:08:48.144Z,100251.63
2022-09-12T12:11:27.335Z,100255.50
2022-09-12T12:13:57.452Z,100260.25
2022-09-12T12:16:28.203Z,100260.94
2022-09-12T12:19:00.378Z,100252.28
2022-09-12T12:21:38.849Z,100256.91
2022-09-12T12:24:19.032Z,100249.13
2022-09-12T12:26:59.571Z,100249.78
2022-09-12T12:29:43.378Z,100249.75
2022-09-12T12:32:36.023Z,100248.41
2022-09-12T12:35:38.145Z,100252.06
2022-09-12T12:38:28.473Z,100252.56
2022-09-12T12:41:40.833Z,100242.38
2022-09-12T12:44:41.930Z,100248.63
2022-09-12T12:47:17.569Z,100239.31
2022-09-12T12:49:51.817Z,100247.22
2022-09-12T12:52:19.897Z,100243.19
2022-09-12T12:54:54.136Z,100236.69
2022-09-12T12:57:40.276Z,100244.47
2022-09-12T13:00:26.477Z,100240.00
2022-09-12T13:02:58.741Z,100240.66
2022-09-12T13:05:29.454Z,100242.75
2022-09-12T13:08:00.786Z,100235.19
2022-09-12T13:10:29.894Z,100239.84
2022-09-12T13:13:00.969Z,100240.69
2022-09-12T13:15:50.470Z,100237.16
2022-09-12T13:18:27.588Z,100226.13
2022-09-12T13:21:06.140Z,100230.34
2022-09-12T13:23:34.419Z,100229.63
2022-09-12T13:26:04.671Z,100228.38
2022-09-12T13:28:32.298Z,100219.06
2022-09-12T13:31:03.222Z,100223.16
2022-09-12T13:33:37.347Z,100219.09
2022-09-12T13:36:28.466Z,100221.09
2022-09-12T13:39:13.852Z,100209.72
2022-09-12T13:41:58.958Z,100219.59
2022-09-12T13:44:28.306Z,100216.63
2022-09-12T13:46:59.010Z,100214.38
2022-09-12T13:49:32.327Z,100206.06
2022-09-12T13:52:03.008Z,100209.16
2022-09-12T13:54:31.424Z,100204.59
2022-09-12T13:57:00.238Z,100194.94
2022-09-12T13:59:28.072Z,100197.22
2022-09-12T14:01:55.385Z,100199.44
2022-09-12T14:04:24.945Z,100196.50
2022-09-12T14:06:53.308Z,100199.81
2022-09-12T14:09:25.247Z,100200.97
2022-09-12T14:11:53.826Z,100201.25
2022-09-12T14:14:29.912Z,100199.75
2022-09-12T14:16:57.446Z,100195.66
2022-09-12T14:19:26.474Z,100200.88
2022-09-12T14:21:54.637Z,100191.97
2022-09-12T14:24:22.327Z,100198.78
2022-09-12T14:26:52.170Z,100194.72
2022-09-12T14:29:20.941Z,100186.13
2022-09-12T14:32:01.409Z,100188.66
2022-09-12T14:34:29.900Z,100191.13
2022-09-12T14:36:58.467Z,100188.28
2022-09-12T14:39:32.223Z,100183.59
2022-09-12T14:42:06.754Z,100185.75
2022-09-12T14:44:35.689Z,100178.00
2022-09-12T14:47:15.318Z,100189.09
2022-09-12T14:49:42.841Z,100183.03
2022-09-12T14:52:24.737Z,100190.84
2022-09-12T14:55:00.872Z,100190.78
2022-09-12T14:57:36.441Z,100195.44
2022-09-12T15:00:17.143Z,100185.31
2022-09-12T15:02:46.891Z,100191.13
2022-09-12T15:05:23.589Z,100182.31
2022-09-12T15:07:58.027Z,100180.78
2022-09-12T15:10:27.809Z,100180.06
2022-09-12T15:13:12.650Z,100181.66
2022-09-12T15:15:41.596Z,100180.22
2022-09-12T15:18:11.215Z,100180.25
2022-09-12T15:20:39.939Z,100187.19
2022-09-12T15:23:14.866Z,100184.06
2022-09-12T15:25:42.377Z,100187.69
2022-09-12T15:28:16.852Z,100179.91
2022-09-12T15:30:45.023Z,100179.91
2022-09-12T15:33:13.683Z,100185.63
2022-09-12T15:35:41.536Z,100182.06
2022-09-12T15:38:09.220Z,100182.22
2022-09-12T15:40:36.643Z,100179.13
2022-09-12T15:43:03.947Z,100183.72
2022-09-12T15:45:33.658Z,100183.78
2022-09-12T15:48:03.131Z,100186.38
2022-09-12T15:50:34.873Z,100189.78
2022-09-12T15:53:02.476Z,100192.25
2022-09-12T15:55:31.724Z,100185.56
2022-09-12T15:58:03.535Z,100190.84
2022-09-12T16:00:32.340Z,100187.03
2022-09-12T16:03:00.093Z,100183.34
2022-09-12T16:05:27.779Z,100182.13
2022-09-12T16:07:56.423Z,100190.97
2022-09-12T16:10:27.867Z,100191.84
2022-09-12T16:12:55.179Z,100180.84
2022-09-12T16:15:24.528Z,100181.81
2022-09-12T16:17:52.652Z,100177.69
2022-09-12T16:20:20.753Z,100175.78
2022-09-12T16:22:48.579Z,100175.91
2022-09-12T16:25:18.057Z,100166.63
2022-09-12T16:27:45.822Z,100165.59
2022-09-12T16:30:13.587Z,100167.25
2022-09-12T16:32:41.114Z,100172.81
2022-09-12T16:35:08.991Z,100171.41
2022-09-12T16:37:36.380Z,100170.44
2022-09-12T16:40:06.966Z,100163.47
2022-09-12T16:42:35.986Z,100160.25
2022-09-12T16:45:03.556Z,100156.13
2022-09-12T16:47:32.768Z,100150.75
2022-09-12T16:50:00.065Z,100154.09
2022-09-12T16:52:27.489Z,100150.41
2022-09-12T16:54:55.159Z,100139.50
2022-09-12T16:57:22.907Z,100141.50
2022-09-12T16:59:51.553Z,100139.25
2022-09-12T17:02:20.371Z,100139.50
2022-09-12T17:04:47.791Z,100136.84
2022-09-12T17:07:15.186Z,100132.06
2022-09-12T17:09:46.261Z,100134.44
2022-09-12T17:12:15.358Z,100138.25
2022-09-12T17:14:42.675Z,100138.41
2022-09-12T17:17:11.607Z,100134.81
2022-09-12T17:19:38.891Z,100127.91
2022-09-12T17:22:06.169Z,100130.97
2022-09-12T17:24:34.022Z,100131.03
2022-09-12T17:27:01.337Z,100135.88
2022-09-12T17:29:28.798Z,100138.97
2022-09-12T17:31:56.308Z,100138.97
2022-09-12T17:34:24.991Z,100143.28
2022-09-12T17:36:52.382Z,100141.88
2022-09-12T17:39:20.174Z,100139.25
2022-09-12T17:41:47.489Z,100147.19
2022-09-12T17:44:15.422Z,100149.19
2022-09-12T17:46:44.311Z,100143.94
2022-09-12T17:49:13.475Z,100148.56
2022-09-12T17:51:43.101Z,100144.03
2022-09-12T17:54:12.191Z,100147.59
2022-09-12T17:56:39.855Z,100151.84
2022-09-12T17:59:08.359Z,100158.84
2022-09-12T18:01:36.202Z,100159.47
2022-09-12T18:04:03.673Z,100163.22
2022-09-12T18:06:32.492Z,100164.38
2022-09-12T18:09:02.133Z,100164.31
2022-09-12T18:11:30.037Z,100162.78
2022-09-12T18:13:58.460Z,100164.50
2022-09-12T18:16:27.234Z,100163.63
2022-09-12T18:18:54.574Z,100164.13
2022-09-12T18:21:21.856Z,100163.91
2022-09-12T18:23:49.908Z,100171.56
2022-09-12T18:26:19.889Z,100168.19
2022-09-12T18:28:47.283Z,100159.06
2022-09-12T18:31:17.584Z,100161.25
2022-09-12T18:33:45.421Z,100157.59
2022-09-12T18:36:14.142Z,100157.59
2022-09-12T18:38:42.587Z,100163.81
2022-09-12T18:41:13.201Z,100160.72
2022-09-12T18:43:42.137Z,100159.97
2022-09-12T18:46:13.078Z,100165.22
2022-09-12T18:48:40.739Z,100162.84
2022-09-12T18:51:11.028Z,100169.50
2022-09-12T18:53:39.458Z,100163.44
2022-09-12T18:56:09.274Z,100162.22
2022-09-12T18:58:37.147Z,100161.44
2022-09-12T19:01:14.397Z,100165.28
2022-09-12T19:03:42.351Z,100165.50
2022-09-12T19:06:12.242Z,100167.16
2022-09-12T19:08:39.846Z,100161.31
2022-09-12T19:11:07.870Z,100162.56
2022-09-12T19:13:36.846Z,100164.69
2022-09-12T19:16:05.940Z,100156.75
2022-09-12T19:18:35.058Z,100160.13
2022-09-12T19:21:03.058Z,100154.69
2022-09-12T19:23:30.836Z,100153.44
2022-09-12T19:25:59.254Z,100157.22
2022-09-12T19:28:27.543Z,100149.47
2022-09-12T19:30:55.182Z,100151.97
2022-09-12T19:33:23.180Z,100150.13
2022-09-12T19:35:52.989Z,100154.28
2022-09-12T19:38:20.593Z,100148.03
2022-09-12T19:40:56.786Z,100145.50
2022-09-12T19:43:25.168Z,100138.63
2022-09-12T19:45:53.284Z,100136.13
2022-09-12T19:48:21.588Z,100144.06
2022-09-12T19:50:49.894Z,100140.06
2022-09-12T19:53:19.071Z,100146.75
2022-09-12T19:55:46.993Z,100132.56
2022-09-12T19:58:14.646Z,100134.66
2022-09-12T20:00:41.963Z,100136.94
2022-09-12T20:03:09.326Z,100129.00
2022-09-12T20:05:42.058Z,100131.47
2022-09-12T20:08:09.969Z,100129.13
2022-09-12T20:10:39.031Z,100124.31
2022-09-12T20:13:07.170Z,100124.88
2022-09-12T20:15:34.429Z,100121.59
2022-09-12T20:18:02.117Z,100123.91
2022-09-12T20:20:29.426Z,100126.44
2022-09-12T20:22:56.637Z,100122.28
2022-09-12T20:25:24.566Z,100124.47
2022-09-12T20:27:55.926Z,100124.84
2022-09-12T20:30:27.716Z,100122.50
2022-09-12T20:32:54.954Z,100122.75
2022-09-12T20:35:22.235Z,100121.97
2022-09-12T20:37:49.947Z,100120.91
2022-09-12T20:40:17.420Z,100127.13
2022-09-12T20:42:44.712Z,100121.47
2022-09-12T20:45:13.781Z,100118.81
2022-09-12T20:47:41.060Z,100115.53
2022-09-12T20:50:09.280Z,100112.53
2022-09-12T20:52:36.848Z,100118.41
2022-09-12T20:55:05.336Z,100116.72
2022-09-12T20:57:32.616Z,100117.31
2022-09-12T21:00:00.172Z,100110.19
2022-09-12T21:02:29.043Z,100119.28
2022-09-12T21:04:56.466Z,100120.44
2022-09-12T21:07:24.021Z,100125.28
2022-09-12T21:09:51.365Z,100122.97
2022-09-12T21:12:18.923Z,100118.66
2022-09-12T21:14:46.607Z,100117.50
2022-09-12T21:17:13.898Z,100114.75
2022-09-12T21:19:42.822Z,100119.59
2022-09-12T21:22:10.745Z,100116.53
2022-09-12T21:24:38.032Z,100114.97
2022-09-12T21:27:05.537Z,100122.88
2022-09-12T21:29:33.183Z,100117.31
2022-09-12T21:32:00.439Z,100119.16
2022-09-12T21:34:27.752Z,100120.00
2022-09-12T21:36:56.817Z,100115.66
2022-09-12T21:39:24.213Z,100112.00
2022-09-12T21:41:51.528Z,100120.09
2022-09-12T21:44:19.166Z,100116.75
2022-09-12T21:46:46.341Z,100114.91
2022-09-12T21:49:15.563Z,100113.69
2022-09-12T21:51:43.480Z,100109.50
2022-09-12T21:54:12.323Z,100113.56
2022-09-12T21:56:39.854Z,100108.56
2022-09-12T21:59:07.273Z,100108.13
2022-09-12T22:01:34.630Z,100097.75
2022-09-12T22:04:02.433Z,100102.13
2022-09-12T22:06:30.144Z,100105.84
2022-09-12T22:08:57.528Z,100109.38
2022-09-12T22:11:26.349Z,100093.81
2022-09-12T22:13:54.150Z,100094.88
2022-09-12T22:16:21.414Z,100092.19
2022-09-12T22:18:48.853Z,100091.94
2022-09-12T22:21:18.960Z,100091.41
2022-09-12T22:23:46.466Z,100089.25
2022-09-12T22:26:14.149Z,100094.75
2022-09-12T22:28:43.356Z,100093.25
2022-09-12T22:31:11.170Z,100099.41
2022-09-12T22:33:39.350Z,100098.72
2022-09-12T22:36:07.953Z,100090.97
2022-09-12T22:38:35.681Z,100092.63
2022-09-12T22:41:05.281Z,100079.75
2022-09-12T22:43:32.942Z,100081.72
2022-09-12T22:46:05.338Z,100076.50
2022-09-12T22:48:32.554Z,100074.94
2022-09-12T22:51:00.317Z,100075.50
2022-09-12T22:53:27.558Z,100071.97
2022-09-12T22:55:55.528Z,100076.19
2022-09-12T22:58:23.138Z,100070.09
2022-09-12T23:00:51.655Z,100067.50
2022-09-12T23:03:21.087Z,100062.84
2022-09-12T23:05:49.095Z,100064.13
2022-09-12T23:08:17.437Z,100057.59
2022-09-12T23:10:45.306Z,100062.28
2022-09-12T23:13:12.985Z,100051.63
2022-09-12T23:15:41.072Z,100056.72
2022-09-12T23:18:08.407Z,100052.72
2022-09-12T23:20:36.983Z,100051.06
2022-09-12T23:23:04.930Z,100057.22
2022-09-12T23:25:32.198Z,100052.47
2022-09-12T23:27:59.602Z,100048.91
2022-09-12T23:30:27.442Z,100042.25
2022-09-12T23:32:55.978Z,100047.75
2022-09-12T23:35:23.472Z,100048.19
2022-09-12T23:37:52.959Z,100043.06
2022-09-12T23:40:20.153Z,100034.91
2022-09-12T23:42:47.622Z,100028.22
2022-09-12T23:45:15.485Z,100027.56
2022-09-12T23:47:42.982Z,100039.94
2022-09-12T23:50:10.458Z,100033.06
2022-09-12T23:52:37.909Z,100029.41
2022-09-12T23:55:07.475Z,100036.22
2022-09-12T23:57:34.670Z,100025.78
